createdAt,value
2018-06-09T00:00:22.203Z,80.20
2018-06-09T00:02:50.812Z,80.30
2018-06-09T00:05:19.367Z,80.20
2018-06-09T00:07:47.979Z,79.90
2018-06-09T00:10:16.575Z,79.50
2018-06-09T00:12:45.239Z,82.10
2018-06-09T00:15:13.798Z,80.70
2018-06-09T00:17:42.391Z,82.00
2018-06-09T00:20:10.967Z,82.70
2018-06-09T00:25:07.786Z,83.40
2018-06-09T00:27:36.370Z,81.20
2018-06-09T00:30:05.051Z,82.20
2018-06-09T00:32:33.634Z,82.80
2018-06-09T00:35:02.191Z,84.10
2018-06-09T00:37:30.796Z,81.80
2018-06-09T00:39:59.385Z,85.10
2018-06-09T00:42:27.994Z,84.20
2018-06-09T00:44:56.595Z,82.40
2018-06-09T00:47:25.191Z,83.90
2018-06-09T00:49:53.758Z,84.80
2018-06-09T00:52:22.352Z,81.90
2018-06-09T00:57:19.185Z,82.40
2018-06-09T00:59:47.760Z,83.30
2018-06-09T01:02:16.366Z,83.20
2018-06-09T01:04:45.003Z,83.90
2018-06-09T01:07:13.571Z,82.40
2018-06-09T01:09:42.150Z,83.10
2018-06-09T01:12:10.774Z,83.70
2018-06-09T01:14:39.365Z,87.40
2018-06-09T01:17:07.976Z,87.20
2018-06-09T01:22:04.937Z,84.40
2018-06-09T01:24:33.517Z,83.10
2018-06-09T01:27:02.092Z,84.50
2018-06-09T01:31:58.911Z,83.10
2018-06-09T01:34:27.506Z,86.20
2018-06-09T01:36:56.061Z,87.50
2018-06-09T01:39:24.673Z,85.00
2018-06-09T01:41:53.244Z,85.10
2018-06-09T01:44:21.894Z,87.10
2018-06-09T01:46:50.459Z,86.90
2018-06-09T01:49:19.058Z,86.10
2018-06-09T01:51:47.613Z,86.40
2018-06-09T01:54:16.233Z,86.40
2018-06-09T01:56:44.802Z,83.30
2018-06-09T01:59:13.378Z,84.50
2018-06-09T02:01:41.930Z,81.80
2018-06-09T02:04:10.542Z,83.60
2018-06-09T02:06:39.123Z,84.10
2018-06-09T02:09:09.226Z,84.30
2018-06-09T02:11:37.823Z,83.70
2018-06-09T02:16:34.724Z,84.10
2018-06-09T02:19:03.319Z,86.30
2018-06-09T02:21:31.932Z,88.20
2018-06-09T02:24:00.533Z,88.00
2018-06-09T02:26:29.099Z,86.40
2018-06-09T02:28:57.710Z,84.10
2018-06-09T02:31:26.299Z,85.80
2018-06-09T02:33:54.895Z,85.00
2018-06-09T02:36:23.443Z,84.10
2018-06-09T02:38:52.025Z,86.20
2018-06-09T02:41:20.575Z,86.20
2018-06-09T02:43:49.162Z,87.10
2018-06-09T02:46:17.736Z,84.40
2018-06-09T02:48:46.378Z,85.30
2018-06-09T02:51:14.933Z,84.50
2018-06-09T02:53:43.491Z,82.80
2018-06-09T02:56:12.094Z,86.70
2018-06-09T02:58:40.653Z,83.60
2018-06-09T03:01:09.325Z,84.30
2018-06-09T03:03:37.890Z,84.60
2018-06-09T03:06:06.512Z,83.80
2018-06-09T03:08:35.063Z,87.30
2018-06-09T03:11:03.657Z,84.10
2018-06-09T03:13:32.245Z,83.90
2018-06-09T03:16:00.886Z,82.00
2018-06-09T03:18:29.443Z,83.10
2018-06-09T03:20:58.043Z,86.30
2018-06-09T03:23:26.604Z,83.50
2018-06-09T03:25:55.188Z,84.30
2018-06-09T03:28:23.772Z,88.60
2018-06-09T03:30:52.370Z,85.40
2018-06-09T03:33:20.947Z,84.50
2018-06-09T03:35:49.539Z,84.30
2018-06-09T03:38:18.091Z,86.50
2018-06-09T03:40:46.693Z,86.30
2018-06-09T03:43:15.334Z,84.60
2018-06-09T03:45:43.919Z,86.30
2018-06-09T03:48:12.503Z,86.70
2018-06-09T03:50:41.123Z,86.00
2018-06-09T03:53:09.717Z,86.20
2018-06-09T03:55:38.291Z,83.70
2018-06-09T03:58:06.950Z,85.40
2018-06-09T04:00:35.614Z,87.10
2018-06-09T04:03:04.211Z,85.10
2018-06-09T04:05:32.843Z,84.20
2018-06-09T04:08:01.395Z,87.60
2018-06-09T04:10:29.987Z,84.10
2018-06-09T04:12:58.574Z,85.10
2018-06-09T04:15:27.159Z,85.10
2018-06-09T04:17:55.715Z,87.30
2018-06-09T04:20:24.343Z,85.80
2018-06-09T04:22:52.914Z,84.90
2018-06-09T04:25:21.503Z,87.10
2018-06-09T04:27:50.086Z,83.80
2018-06-09T04:30:18.649Z,87.20
2018-06-09T04:32:47.271Z,86.30
2018-06-09T04:35:15.828Z,86.80
2018-06-09T04:37:44.419Z,84.80
2018-06-09T04:40:12.970Z,86.80
2018-06-09T04:42:41.545Z,84.00
2018-06-09T04:45:10.101Z,90.10
2018-06-09T04:47:38.719Z,85.70
2018-06-09T04:50:07.308Z,87.30
2018-06-09T04:52:35.898Z,87.60
2018-06-09T04:55:04.481Z,88.80
2018-06-09T04:57:33.194Z,86.30
2018-06-09T05:00:01.763Z,84.70
2018-06-09T05:02:30.362Z,85.70
2018-06-09T05:04:58.909Z,87.20
2018-06-09T05:07:27.498Z,85.80
2018-06-09T05:09:56.067Z,87.00
2018-06-09T05:12:24.704Z,84.30
2018-06-09T05:14:53.262Z,86.50
2018-06-09T05:17:21.858Z,87.10
2018-06-09T05:19:50.429Z,87.20
2018-06-09T05:22:19.042Z,86.70
2018-06-09T05:24:47.596Z,85.80
2018-06-09T05:29:44.407Z,86.40
2018-06-09T05:32:12.982Z,85.70
2018-06-09T05:34:41.547Z,87.40
2018-06-09T05:37:10.163Z,85.00
2018-06-09T05:39:38.721Z,85.40
2018-06-09T05:42:07.336Z,84.80
2018-06-09T05:44:35.900Z,83.40
2018-06-09T05:47:04.611Z,83.70
2018-06-09T05:49:33.205Z,84.30
2018-06-09T05:54:30.024Z,84.10
2018-06-09T05:56:58.602Z,85.70
2018-06-09T05:59:27.223Z,84.10
2018-06-09T06:01:55.810Z,82.80
2018-06-09T06:04:24.419Z,81.20
2018-06-09T06:06:52.987Z,80.10
2018-06-09T06:09:21.575Z,78.60
2018-06-09T06:14:18.386Z,75.80
2018-06-09T06:16:46.983Z,75.10
2018-06-09T06:19:15.550Z,71.80
2018-06-09T06:21:44.213Z,70.10
2018-06-09T06:24:12.781Z,69.00
2018-06-09T06:26:41.358Z,68.00
2018-06-09T06:29:09.937Z,65.80
2018-06-09T06:31:38.516Z,64.60
2018-06-09T06:34:07.090Z,64.00
2018-06-09T06:36:35.654Z,63.70
2018-06-09T06:39:06.569Z,63.70
2018-06-09T06:41:35.114Z,61.60
2018-06-09T06:44:03.715Z,60.30
2018-06-09T06:46:32.271Z,59.70
2018-06-09T06:49:00.934Z,61.10
2018-06-09T06:51:29.502Z,59.30
2018-06-09T06:53:58.103Z,56.80
2018-06-09T06:56:26.658Z,56.60
2018-06-09T06:58:55.271Z,55.20
2018-06-09T07:03:52.075Z,56.10
2018-06-09T07:06:20.729Z,53.80
2018-06-09T07:08:49.277Z,53.10
2018-06-09T07:11:17.851Z,52.80
2018-06-09T07:13:46.430Z,51.90
2018-06-09T07:16:15.012Z,52.40
2018-06-09T07:18:43.587Z,51.70
2018-06-09T07:21:12.197Z,53.30
2018-06-09T07:23:40.763Z,49.80
2018-06-09T07:26:09.389Z,50.40
2018-06-09T07:28:37.931Z,48.20
2018-06-09T07:31:06.514Z,52.30
2018-06-09T07:33:35.094Z,48.50
2018-06-09T07:36:03.798Z,48.40
2018-06-09T07:38:32.346Z,47.30
2018-06-09T07:41:00.942Z,48.80
2018-06-09T07:43:29.559Z,46.70
2018-06-09T07:45:58.140Z,47.00
2018-06-09T07:48:26.771Z,45.80
2018-06-09T07:50:55.376Z,46.90
2018-06-09T07:53:24.132Z,46.30
2018-06-09T07:55:52.729Z,44.10
2018-06-09T07:58:21.309Z,46.30
2018-06-09T08:00:49.908Z,47.60
2018-06-09T08:03:18.498Z,46.70
2018-06-09T08:05:47.098Z,43.70
2018-06-09T08:08:15.717Z,44.70
2018-06-09T08:10:44.338Z,45.10
2018-06-09T08:13:12.919Z,43.80
2018-06-09T08:15:41.507Z,44.00
2018-06-09T08:20:38.346Z,45.70
2018-06-09T08:23:06.928Z,42.10
2018-06-09T08:25:35.542Z,43.80
2018-06-09T08:28:04.143Z,46.70
2018-06-09T08:33:00.974Z,42.50
2018-06-09T08:35:29.547Z,43.80
2018-06-09T08:37:58.182Z,44.90
2018-06-09T08:40:26.742Z,42.60
2018-06-09T08:42:55.338Z,44.70
2018-06-09T08:47:52.193Z,41.50
2018-06-09T08:50:20.745Z,42.10
2018-06-09T08:52:49.346Z,43.70
2018-06-09T08:55:17.973Z,41.30
2018-06-09T08:57:46.570Z,43.00
2018-06-09T09:00:15.130Z,42.10
2018-06-09T09:02:43.783Z,42.70
2018-06-09T09:05:12.375Z,43.00
2018-06-09T09:07:40.983Z,42.10
2018-06-09T09:10:09.547Z,41.80
2018-06-09T09:12:38.189Z,42.00
2018-06-09T09:15:06.794Z,42.50
2018-06-09T09:17:35.437Z,41.20
2018-06-09T09:20:04.094Z,41.40
2018-06-09T09:22:32.674Z,40.50
2018-06-09T09:25:01.229Z,43.50
2018-06-09T09:27:29.814Z,42.30
2018-06-09T09:29:58.379Z,41.40
2018-06-09T09:32:26.955Z,41.90
2018-06-09T09:34:55.549Z,42.70
2018-06-09T09:37:24.140Z,40.30
2018-06-09T09:39:52.731Z,40.20
2018-06-09T09:42:21.287Z,42.00
2018-06-09T09:44:50.478Z,41.10
2018-06-09T09:47:19.053Z,41.40
2018-06-09T09:49:48.179Z,39.20
2018-06-09T09:52:16.774Z,38.10
2018-06-09T09:54:45.422Z,39.40
2018-06-09T09:57:14.004Z,39.20
2018-06-09T09:59:42.654Z,38.60
2018-06-09T10:02:11.223Z,37.70
2018-06-09T10:04:39.850Z,36.80
2018-06-09T10:07:08.436Z,37.20
2018-06-09T10:09:37.034Z,37.50
2018-06-09T10:12:06.532Z,36.70
2018-06-09T10:14:35.238Z,37.10
2018-06-09T10:17:04.195Z,37.30
2018-06-09T10:19:32.799Z,36.60
2018-06-09T10:22:01.395Z,39.10
2018-06-09T10:24:29.966Z,38.90
2018-06-09T10:26:58.561Z,39.10
2018-06-09T10:29:27.153Z,38.30
2018-06-09T10:31:55.705Z,39.20
2018-06-09T10:34:24.287Z,40.10
2018-06-09T10:36:52.852Z,40.10
2018-06-09T10:39:21.444Z,39.90
2018-06-09T10:41:50.023Z,40.60
2018-06-09T10:44:18.599Z,40.80
2018-06-09T10:46:47.269Z,41.70
2018-06-09T10:49:15.850Z,40.30
2018-06-09T10:51:44.432Z,41.80
2018-06-09T10:54:13.016Z,41.50
2018-06-09T10:56:41.601Z,40.10
2018-06-09T10:59:10.215Z,41.50
2018-06-09T11:01:38.762Z,41.50
2018-06-09T11:04:07.437Z,40.60
2018-06-09T11:06:36.487Z,40.50
2018-06-09T11:09:07.120Z,40.70
2018-06-09T11:11:35.750Z,40.90
2018-06-09T11:14:04.358Z,44.40
2018-06-09T11:16:32.967Z,44.10
2018-06-09T11:19:01.555Z,44.10
2018-06-09T11:21:30.165Z,44.70
2018-06-09T11:23:58.753Z,45.40
2018-06-09T11:26:27.377Z,44.70
2018-06-09T11:28:55.963Z,45.00
2018-06-09T11:31:25.368Z,45.20
2018-06-09T11:33:53.947Z,44.80
2018-06-09T11:36:22.575Z,45.60
2018-06-09T11:38:51.146Z,46.20
2018-06-09T11:41:19.742Z,45.10
2018-06-09T11:43:48.298Z,44.40
2018-06-09T11:46:16.947Z,45.00
2018-06-09T11:48:47.300Z,45.90
2018-06-09T11:51:15.906Z,45.90
2018-06-09T11:53:44.494Z,46.50
2018-06-09T11:56:13.110Z,47.20
2018-06-09T12:01:10.815Z,47.50
2018-06-09T12:03:39.401Z,47.50
2018-06-09T12:06:08.001Z,47.10
2018-06-09T12:08:36.743Z,48.90
2018-06-09T12:11:05.428Z,49.00
2018-06-09T12:13:34.031Z,49.40
2018-06-09T12:16:02.643Z,49.40
2018-06-09T12:18:31.222Z,50.10
2018-06-09T12:20:59.844Z,49.40
2018-06-09T12:23:28.398Z,50.50
2018-06-09T12:25:56.984Z,51.60
2018-06-09T12:28:25.547Z,52.90
2018-06-09T12:30:54.154Z,52.80
2018-06-09T12:33:22.739Z,54.20
2018-06-09T12:35:51.338Z,55.30
2018-06-09T12:38:19.954Z,55.90
2018-06-09T12:40:48.547Z,55.40
2018-06-09T12:43:17.236Z,55.80
2018-06-09T12:45:45.873Z,57.10
2018-06-09T12:48:14.474Z,56.40
2018-06-09T12:50:43.059Z,57.00
2018-06-09T12:53:11.688Z,59.70
2018-06-09T12:55:40.267Z,59.30
2018-06-09T12:58:08.871Z,60.30
2018-06-09T13:00:37.501Z,63.00
2018-06-09T13:03:06.146Z,64.00
2018-06-09T13:05:34.798Z,62.10
2018-06-09T13:08:03.495Z,60.10
2018-06-09T13:10:32.092Z,60.00
2018-06-09T13:13:00.743Z,60.00
2018-06-09T13:15:29.339Z,58.10
2018-06-09T13:17:57.966Z,57.60
2018-06-09T13:22:54.824Z,56.60
2018-06-09T13:25:23.542Z,56.70
2018-06-09T13:27:52.143Z,55.10
2018-06-09T13:30:20.810Z,53.70
2018-06-09T13:32:49.395Z,54.20
2018-06-09T13:35:18.047Z,53.90
2018-06-09T13:37:46.696Z,52.50
2018-06-09T13:40:15.271Z,51.30
2018-06-09T13:42:43.888Z,50.60
2018-06-09T13:45:12.532Z,52.00
2018-06-09T13:47:41.135Z,52.50
2018-06-09T13:50:09.711Z,53.00
2018-06-09T13:52:38.292Z,53.50
2018-06-09T13:55:06.882Z,53.10
2018-06-09T13:57:35.474Z,53.30
2018-06-09T14:00:04.186Z,52.80
2018-06-09T14:02:32.797Z,54.60
2018-06-09T14:05:01.362Z,55.90
2018-06-09T14:07:29.994Z,58.00
2018-06-09T14:09:58.586Z,57.80
2018-06-09T14:12:27.242Z,59.10
2018-06-09T14:14:55.971Z,59.00
2018-06-09T14:17:25.026Z,59.60
2018-06-09T14:19:54.158Z,60.20
2018-06-09T14:22:23.149Z,59.40
2018-06-09T14:24:51.804Z,61.10
2018-06-09T14:27:20.379Z,61.40
2018-06-09T14:29:48.985Z,60.50
2018-06-09T14:32:17.539Z,61.00
2018-06-09T14:34:46.241Z,61.90
2018-06-09T14:37:14.818Z,61.50
2018-06-09T14:39:43.423Z,62.10
2018-06-09T14:42:12.011Z,61.50
2018-06-09T14:44:40.618Z,61.90
2018-06-09T14:49:37.750Z,64.10
2018-06-09T14:52:06.423Z,63.40
2018-06-09T14:54:35.019Z,62.20
2018-06-09T14:57:03.610Z,64.80
2018-06-09T14:59:32.574Z,63.40
2018-06-09T15:02:01.564Z,63.90
2018-06-09T15:04:30.147Z,65.10
2018-06-09T15:06:59.175Z,64.90
2018-06-09T15:09:27.840Z,63.40
2018-06-09T15:11:56.408Z,64.60
2018-06-09T15:14:25.092Z,63.40
2018-06-09T15:16:53.879Z,64.40
2018-06-09T15:19:22.495Z,63.80
2018-06-09T15:21:51.386Z,64.30
2018-06-09T15:24:20.022Z,67.20
2018-06-09T15:26:48.587Z,65.90
2018-06-09T15:31:45.410Z,62.30
2018-06-09T15:34:13.998Z,61.90
2018-06-09T15:36:42.557Z,60.50
2018-06-09T15:39:11.175Z,59.40
2018-06-09T15:41:39.816Z,59.40
2018-06-09T15:44:08.400Z,59.40
2018-06-09T15:46:37.008Z,56.60
2018-06-09T15:49:05.586Z,57.80
2018-06-09T15:51:34.240Z,56.60
2018-06-09T15:54:02.976Z,58.20
2018-06-09T15:56:31.557Z,58.00
2018-06-09T15:59:00.231Z,56.60
2018-06-09T16:01:28.852Z,58.80
2018-06-09T16:03:57.415Z,62.60
2018-06-09T16:06:25.993Z,64.20
2018-06-09T16:08:54.601Z,67.20
2018-06-09T16:11:23.185Z,64.90
2018-06-09T16:16:20.062Z,71.40
2018-06-09T16:18:48.623Z,71.30
2018-06-09T16:21:17.256Z,71.50
2018-06-09T16:23:45.879Z,70.70
2018-06-09T16:26:14.479Z,72.30
2018-06-09T16:28:43.067Z,72.50
2018-06-09T16:31:11.674Z,71.80
2018-06-09T16:33:40.262Z,70.10
2018-06-09T16:36:08.855Z,71.90
2018-06-09T16:38:37.439Z,74.20
2018-06-09T16:41:06.167Z,74.00
2018-06-09T16:43:34.744Z,73.90
2018-06-09T16:46:03.380Z,72.50
2018-06-09T16:48:31.956Z,72.60
2018-06-09T16:51:00.566Z,74.30
2018-06-09T16:53:29.518Z,73.60
2018-06-09T16:55:58.152Z,72.40
2018-06-09T16:58:26.818Z,73.10
2018-06-09T17:00:55.481Z,73.70
2018-06-09T17:03:24.087Z,71.60
2018-06-09T17:05:52.759Z,70.90
2018-06-09T17:08:21.491Z,71.70
2018-06-09T17:10:50.131Z,73.90
2018-06-09T17:13:18.774Z,76.00
2018-06-09T17:15:47.410Z,75.70
2018-06-09T17:18:16.037Z,75.60
2018-06-09T17:20:44.631Z,74.20
2018-06-09T17:23:13.236Z,75.30
2018-06-09T17:25:41.789Z,77.70
2018-06-09T17:28:10.371Z,77.10
2018-06-09T17:30:38.946Z,76.90
2018-06-09T17:33:07.538Z,73.70
2018-06-09T17:38:04.432Z,75.20
2018-06-09T17:40:33.038Z,75.60
2018-06-09T17:43:01.677Z,75.00
2018-06-09T17:45:30.287Z,76.50
2018-06-09T17:47:58.922Z,74.50
2018-06-09T17:50:27.826Z,76.30
2018-06-09T17:52:56.445Z,75.50
2018-06-09T17:55:25.033Z,78.10
2018-06-09T17:57:53.646Z,78.90
2018-06-09T18:00:22.215Z,74.90
2018-06-09T18:02:50.850Z,73.60
2018-06-09T18:05:19.443Z,77.80
2018-06-09T18:07:48.073Z,78.90
2018-06-09T18:10:16.639Z,79.10
2018-06-09T18:12:45.367Z,77.60
2018-06-09T18:15:13.958Z,77.50
2018-06-09T18:17:42.603Z,77.20
2018-06-09T18:20:11.205Z,79.60
2018-06-09T18:22:39.818Z,77.70
2018-06-09T18:25:09.310Z,79.70
2018-06-09T18:30:06.348Z,79.60
2018-06-09T18:32:34.955Z,79.60
2018-06-09T18:35:03.614Z,78.40
2018-06-09T18:37:32.231Z,76.80
2018-06-09T18:40:00.794Z,80.30
2018-06-09T18:42:29.372Z,81.20
2018-06-09T18:44:57.984Z,78.20
2018-06-09T18:49:54.974Z,82.40
2018-06-09T18:52:23.589Z,79.00
2018-06-09T18:54:52.179Z,81.40
2018-06-09T18:57:20.778Z,81.60
2018-06-09T18:59:49.418Z,81.50
2018-06-09T19:02:18.024Z,80.60
2018-06-09T19:04:46.691Z,80.60
2018-06-09T19:07:15.307Z,81.50
2018-06-09T19:09:43.911Z,80.90
2018-06-09T19:12:12.783Z,80.70
2018-06-09T19:14:41.441Z,81.60
2018-06-09T19:17:10.464Z,84.00
2018-06-09T19:19:39.113Z,81.50
2018-06-09T19:22:07.709Z,82.30
2018-06-09T19:24:36.327Z,81.20
2018-06-09T19:27:05.011Z,79.10
2018-06-09T19:29:33.611Z,77.80
2018-06-09T19:32:02.204Z,77.70
2018-06-09T19:34:30.819Z,79.00
2018-06-09T19:36:59.431Z,83.20
2018-06-09T19:39:28.206Z,77.50
2018-06-09T19:41:56.856Z,80.60
2018-06-09T19:44:26.550Z,77.10
2018-06-09T19:46:55.149Z,81.30
2018-06-09T19:49:24.694Z,80.90
2018-06-09T19:51:53.298Z,79.70
2018-06-09T19:56:50.130Z,81.30
2018-06-09T19:59:18.760Z,83.00
2018-06-09T20:01:47.316Z,84.80
2018-06-09T20:04:15.960Z,82.10
2018-06-09T20:06:44.543Z,81.80
2018-06-09T20:09:13.226Z,80.80
2018-06-09T20:11:41.869Z,81.20
2018-06-09T20:14:11.033Z,81.40
2018-06-09T20:16:39.658Z,82.60
2018-06-09T20:19:08.247Z,81.90
2018-06-09T20:21:36.858Z,80.30
2018-06-09T20:24:05.473Z,83.30
2018-06-09T20:26:34.109Z,78.50
2018-06-09T20:29:02.782Z,80.30
2018-06-09T20:31:31.527Z,80.20
2018-06-09T20:34:00.107Z,82.60
2018-06-09T20:36:28.738Z,86.40
2018-06-09T20:38:57.429Z,81.20
2018-06-09T20:41:26.115Z,83.50
2018-06-09T20:43:54.739Z,84.80
2018-06-09T20:46:23.409Z,82.50
2018-06-09T20:48:52.177Z,84.00
2018-06-09T20:51:20.871Z,85.40
2018-06-09T20:53:49.522Z,82.90
2018-06-09T20:56:18.128Z,81.10
2018-06-09T20:58:46.740Z,83.70
2018-06-09T21:01:15.371Z,82.30
2018-06-09T21:03:43.963Z,81.50
2018-06-09T21:06:12.611Z,82.20
2018-06-09T21:08:41.190Z,86.60
2018-06-09T21:11:09.834Z,85.90
2018-06-09T21:13:38.421Z,87.00
2018-06-09T21:16:07.087Z,82.40
2018-06-09T21:18:35.694Z,84.20
2018-06-09T21:21:04.312Z,85.00
2018-06-09T21:23:32.994Z,83.90
2018-06-09T21:26:01.691Z,87.40
2018-06-09T21:28:34.453Z,84.70
2018-06-09T21:31:08.281Z,83.40
2018-06-09T21:33:53.248Z,86.00
2018-06-09T21:36:27.877Z,83.90
2018-06-09T21:39:04.743Z,84.40
2018-06-09T21:41:38.562Z,83.90
2018-06-09T21:44:12.532Z,83.30
2018-06-09T21:46:47.520Z,84.20
2018-06-09T21:49:17.252Z,86.20
2018-06-09T21:51:45.873Z,83.70
2018-06-09T21:54:14.486Z,81.60
2018-06-09T21:56:43.085Z,81.70
2018-06-09T21:59:11.667Z,81.80
2018-06-09T22:01:40.248Z,84.60
2018-06-09T22:04:08.843Z,83.20
2018-06-09T22:06:37.477Z,85.90
2018-06-09T22:09:06.411Z,85.10
2018-06-09T22:11:34.993Z,84.40
2018-06-09T22:14:03.652Z,85.60
2018-06-09T22:16:32.211Z,85.80
2018-06-09T22:19:00.822Z,84.80
2018-06-09T22:21:29.422Z,84.50
2018-06-09T22:23:57.997Z,83.90
2018-06-09T22:26:26.611Z,84.70
2018-06-09T22:28:55.240Z,84.80
2018-06-09T22:31:23.829Z,85.60
2018-06-09T22:36:20.695Z,82.70
2018-06-09T22:38:49.360Z,84.20
2018-06-09T22:41:17.937Z,84.80
2018-06-09T22:43:46.566Z,82.50
2018-06-09T22:46:15.176Z,83.50
2018-06-09T22:48:43.779Z,85.30
2018-06-09T22:51:12.393Z,83.80
2018-06-09T22:53:41.025Z,87.80
2018-06-09T22:56:09.610Z,85.10
2018-06-09T22:58:38.214Z,85.90
2018-06-09T23:01:06.863Z,85.90
2018-06-09T23:03:35.476Z,86.50
2018-06-09T23:06:04.104Z,85.10
2018-06-09T23:08:35.408Z,86.80
2018-06-09T23:11:04.003Z,86.90
2018-06-09T23:13:32.634Z,84.70
2018-06-09T23:16:01.235Z,86.60
2018-06-09T23:18:29.816Z,85.50
2018-06-09T23:20:58.398Z,84.20
2018-06-09T23:23:26.980Z,85.50
2018-06-09T23:25:55.562Z,84.30
2018-06-09T23:28:24.126Z,82.50
2018-06-09T23:30:52.756Z,85.70
2018-06-09T23:33:21.319Z,84.40
2018-06-09T23:35:49.942Z,85.10
2018-06-09T23:38:18.507Z,86.80
2018-06-09T23:40:47.116Z,88.90
2018-06-09T23:43:15.748Z,85.60
2018-06-09T23:45:44.338Z,83.40
2018-06-09T23:48:12.899Z,87.50
2018-06-09T23:50:41.502Z,86.10
2018-06-09T23:53:10.072Z,88.10
2018-06-09T23:55:38.682Z,88.80
2018-06-09T23:58:07.267Z,88.20
